Home > Products > Valid Products > TAF

000
FTUS46 KSTO 070527
TAFSCK
TAF
KSCK 070527Z 0706/0806 25015KT P6SM FEW250
     FM070700 27009KT P6SM FEW250
     FM072200 26013G19KT P6SM FEW250=



000
FTUS46 KSTO 070527
TAFRDD
TAF
KRDD 070527Z 0706/0806 VRB03KT P6SM BKN250
     FM072100 18008KT P6SM BKN250
     FM080400 VRB05KT P6SM BKN200=



000
FTUS46 KSTO 070527
TAFMHR
TAF
KMHR 070527Z 0706/0806 20009KT P6SM FEW250
     FM070800 16009KT P6SM SCT250
     FM071900 22008KT P6SM BKN250
     FM080200 22012G17KT P6SM SCT250=



000
FTUS46 KSTO 070527
TAFRBL
TAF
KRBL 070527Z 0706/0806 VRB04KT P6SM BKN250
     FM072100 16009KT P6SM BKN250
     FM080400 VRB05KT P6SM BKN200=



000
FTUS46 KSTO 070527
TAFSMF
TAF
KSMF 070527Z 0706/0806 18012KT P6SM FEW250
     FM070800 15012KT P6SM SCT250
     FM071800 19008KT P6SM BKN250
     FM080300 17012KT P6SM SCT250=



000
FTUS46 KSTO 070527
TAFSAC
TAF
KSAC 070527Z 0706/0806 22010G18KT P6SM FEW250
     FM070800 18007KT P6SM SCT250
     FM071800 22011G17KT P6SM BKN250=



000
FTUS46 KSTO 070527
TAFSCK
TAF
KSCK 070527Z 0706/0806 25015KT P6SM FEW250
     FM070700 27009KT P6SM FEW250
     FM072200 26013G19KT P6SM FEW250=



000
FTUS46 KSTO 070527
TAFRBL
TAF
KRBL 070527Z 0706/0806 VRB04KT P6SM BKN250
     FM072100 16009KT P6SM BKN250
     FM080400 VRB05KT P6SM BKN200=



000
FTUS46 KSTO 070527
TAFSAC
TAF
KSAC 070527Z 0706/0806 22010G18KT P6SM FEW250
     FM070800 18007KT P6SM SCT250
     FM071800 22011G17KT P6SM BKN250=



000
FTUS46 KSTO 070527
TAFSMF
TAF
KSMF 070527Z 0706/0806 18012KT P6SM FEW250
     FM070800 15012KT P6SM SCT250
     FM071800 19008KT P6SM BKN250
     FM080300 17012KT P6SM SCT250=



000
FTUS46 KSTO 070527
TAFRDD
TAF
KRDD 070527Z 0706/0806 VRB03KT P6SM BKN250
     FM072100 18008KT P6SM BKN250
     FM080400 VRB05KT P6SM BKN200=



000
FTUS46 KSTO 070527
TAFMHR
TAF
KMHR 070527Z 0706/0806 20009KT P6SM FEW250
     FM070800 16009KT P6SM SCT250
     FM071900 22008KT P6SM BKN250
     FM080200 22012G17KT P6SM SCT250=



000
FTUS46 KSTO 070304 AAA
TAFSCK
TAF AMD
KSCK 070304Z 0703/0724 25015KT P6SM FEW250
     FM070700 27009KT P6SM FEW250
     FM072200 27013G19KT P6SM FEW250=



000
FTUS46 KSTO 062320
TAFMHR
TAF
KMHR 062320Z 0700/0724 23011KT P6SM FEW250
     FM070600 16009KT P6SM SCT250
     FM071900 22008KT P6SM SCT250=



000
FTUS46 KSTO 062320
TAFSAC
TAF
KSAC 062320Z 0700/0724 22010G18KT P6SM FEW250
     FM070600 18007KT P6SM SCT250
     FM071800 22011G17KT P6SM BKN250=



000
FTUS46 KSTO 062320
TAFRDD
TAF
KRDD 062320Z 0700/0724 18010KT P6SM SCT250
     FM070400 VRB03KT P6SM SCT250
     FM072100 18008KT P6SM BKN250=



000
FTUS46 KSTO 062320
TAFSCK
TAF
KSCK 062320Z 0700/0724 30016G23KT P6SM FEW250
     FM070400 28012KT P6SM FEW250
     FM072200 29013G19KT P6SM FEW250=



000
FTUS46 KSTO 062320
TAFRBL
TAF
KRBL 062320Z 0700/0724 16010KT P6SM SCT250
     FM070400 VRB04KT P6SM SCT250
     FM072100 16009KT P6SM BKN250=



000
FTUS46 KSTO 062320
TAFSMF
TAF
KSMF 062320Z 0700/0724 19008KT P6SM FEW250
     FM070100 19012G17KT P6SM FEW250
     FM070700 15012KT P6SM SCT250
     FM071800 19008KT P6SM BKN250=



000
FTUS46 KSTO 061726
TAFRDD
TAF
KRDD 061726Z 0618/0718 VRB05KT P6SM FEW250
     FM062100 18010KT P6SM SCT250
     FM070400 VRB03KT P6SM SCT250=



000
FTUS46 KSTO 061726
TAFSAC
TAF
KSAC 061726Z 0618/0718 20008KT P6SM FEW250
     FM062100 22010G18KT P6SM FEW250
     FM070600 18009KT P6SM SCT250=



000
FTUS46 KSTO 061726
TAFRBL
TAF
KRBL 061726Z 0618/0718 16005KT P6SM FEW250
     FM062100 16011KT P6SM SCT250
     FM070400 VRB04KT P6SM SCT250=



000
FTUS46 KSTO 061726
TAFSMF
TAF
KSMF 061726Z 0618/0718 16008KT P6SM FEW250
     FM062100 19010G17KT P6SM FEW250
     FM070600 15012KT P6SM BKN250=



000
FTUS46 KSTO 061726
TAFMHR
TAF
KMHR 061726Z 0618/0718 20007KT P6SM FEW250
     FM062300 22010G17KT P6SM FEW250
     FM070600 16009KT P6SM SCT250=



000
FTUS46 KSTO 061726
TAFSCK
TAF
KSCK 061726Z 0618/0718 30007KT P6SM FEW250
     FM062200 29012G20KT P6SM FEW250
     FM070600 30009KT P6SM FEW250=



000
FTUS46 KSTO 061308 AAA
TAFMHR
TAF AMD
KMHR 061308Z 0613/0712 19010KT P6SM SCT015 SCT250
      TEMPO 0613/0617 OVC010
     FM062300 22010G17KT P6SM FEW250
     FM070600 16009KT P6SM FEW250=



000
FTUS46 KSTO 061308 AAA
TAFMHR
TAF AMD
KMHR 061308Z 0613/0712 19010KT P6SM SCT015 SCT250
      TEMPO 0613/0617 OVC010
     FM062300 22010G17KT P6SM FEW250
     FM070600 16009KT P6SM FEW250=



000
FTUS46 KSTO 061130
TAFRBL
TAF
KRBL 061130Z 0612/0712 16005KT P6SM FEW250
     FM062100 16011KT P6SM SCT250
     FM070400 17004KT P6SM SCT250=



000
FTUS46 KSTO 061130
TAFSMF
TAF
KSMF 061130Z 0612/0712 16012KT P6SM FEW250
     FM062000 19010G17KT P6SM FEW250=



000
FTUS46 KSTO 061130
TAFMHR
TAF
KMHR 061130Z 0612/0712 19010KT P6SM FEW250
     FM062300 22010G17KT P6SM FEW250
     FM070600 16009KT P6SM FEW250=



000
FTUS46 KSTO 061130
TAFSAC
TAF
KSAC 061130Z 0612/0712 18011KT P6SM FEW250
     FM062100 22010G18KT P6SM FEW250=



000
FTUS46 KSTO 061130
TAFSCK
TAF
KSCK 061130Z 0612/0712 30007KT P6SM FEW250
     FM062200 29012G20KT P6SM SKC=



000
FTUS46 KSTO 061130
TAFRDD
TAF
KRDD 061130Z 0612/0712 VRB04KT P6SM FEW250
     FM062100 18010KT P6SM SCT250
     FM070400 VRB03KT P6SM SCT250=



000
FTUS46 KSTO 061130
TAFRBL
TAF
KRBL 061130Z 0612/0712 16005KT P6SM FEW250
     FM062100 16011KT P6SM SCT250
     FM070400 17004KT P6SM SCT250=



000
FTUS46 KSTO 061130
TAFSMF
TAF
KSMF 061130Z 0612/0712 16012KT P6SM FEW250
     FM062000 19010G17KT P6SM FEW250=



000
FTUS46 KSTO 061130
TAFMHR
TAF
KMHR 061130Z 0612/0712 19010KT P6SM FEW250
     FM062300 22010G17KT P6SM FEW250
     FM070600 16009KT P6SM FEW250=



000
FTUS46 KSTO 061130
TAFSAC
TAF
KSAC 061130Z 0612/0712 18011KT P6SM FEW250
     FM062100 22010G18KT P6SM FEW250=



000
FTUS46 KSTO 061130
TAFRDD
TAF
KRDD 061130Z 0612/0712 VRB04KT P6SM FEW250
     FM062100 18010KT P6SM SCT250
     FM070400 VRB03KT P6SM SCT250=



000
FTUS46 KSTO 061130
TAFSCK
TAF
KSCK 061130Z 0612/0712 30007KT P6SM FEW250
     FM062200 29012G20KT P6SM SKC=



000
FTUS46 KSTO 060525
TAFSMF
TAF
KSMF 060525Z 0606/0706 16012KT P6SM FEW250
     FM061800 19010KT P6SM FEW250=



000
FTUS46 KSTO 060525
TAFRBL
TAF
KRBL 060525Z 0606/0706 17005KT P6SM FEW250
     FM062100 16010KT P6SM SCT250=



000
FTUS46 KSTO 060525
TAFRDD
TAF
KRDD 060525Z 0606/0706 16007KT P6SM FEW250
     FM060800 VRB04KT P6SM FEW250
     FM062100 18008KT P6SM SCT250=



000
FTUS46 KSTO 060525
TAFSAC
TAF
KSAC 060525Z 0606/0706 19010KT P6SM FEW250
     FM061600 22010G16KT P6SM FEW250=



000
FTUS46 KSTO 060525
TAFSCK
TAF
KSCK 060525Z 0606/0706 30009KT P6SM FEW250
     FM062200 29012G18KT P6SM SKC=



000
FTUS46 KSTO 060525
TAFMHR
TAF
KMHR 060525Z 0606/0706 18009KT P6SM FEW250
     FM061800 22010KT P6SM FEW250=



000
FTUS46 KSTO 060525
TAFSMF
TAF
KSMF 060525Z 0606/0706 16012KT P6SM FEW250
     FM061800 19010KT P6SM FEW250=



000
FTUS46 KSTO 060525
TAFMHR
TAF
KMHR 060525Z 0606/0706 18009KT P6SM FEW250
     FM061800 22010KT P6SM FEW250=



000
FTUS46 KSTO 060525
TAFRBL
TAF
KRBL 060525Z 0606/0706 17005KT P6SM FEW250
     FM062100 16010KT P6SM SCT250=



000
FTUS46 KSTO 060525
TAFSAC
TAF
KSAC 060525Z 0606/0706 19010KT P6SM FEW250
     FM061600 22010G16KT P6SM FEW250=



000
FTUS46 KSTO 060525
TAFSCK
TAF
KSCK 060525Z 0606/0706 30009KT P6SM FEW250
     FM062200 29012G18KT P6SM SKC=



000
FTUS46 KSTO 060525
TAFRDD
TAF
KRDD 060525Z 0606/0706 16007KT P6SM FEW250
     FM060800 VRB04KT P6SM FEW250
     FM062100 18008KT P6SM SCT250=



000
FTUS46 KSTO 052320
TAFSCK
TAF
KSCK 052320Z 0600/0624 30012G21KT P6SM FEW250
     FM060600 31009KT P6SM FEW250
     FM062200 29013KT P6SM FEW250=



000
FTUS46 KSTO 052320
TAFRDD
TAF
KRDD 052320Z 0600/0624 18012KT P6SM FEW250
     FM060500 VRB04KT P6SM FEW250
     FM062100 18008KT P6SM SCT250=



000
FTUS46 KSTO 052320
TAFMHR
TAF
KMHR 052320Z 0600/0624 22010G16KT P6SM FEW250
     FM060700 15009KT P6SM FEW250
     FM061800 22009KT P6SM FEW250=



000
FTUS46 KSTO 052320
TAFSMF
TAF
KSMF 052320Z 0600/0624 19014KT P6SM FEW250
     FM060600 16014KT P6SM FEW250
     FM061800 19010KT P6SM FEW250=



000
FTUS46 KSTO 052320
TAFRBL
TAF
KRBL 052320Z 0600/0624 16013G19KT P6SM FEW250
     FM060500 17005KT P6SM FEW250
     FM062100 16010KT P6SM SCT250=



000
FTUS46 KSTO 052320
TAFSAC
TAF
KSAC 052320Z 0600/0624 22012G18KT P6SM FEW250
     FM060700 18008KT P6SM FEW250
     FM061600 22010G16KT P6SM FEW250=



000
FTUS46 KSTO 051730
TAFSCK
TAF
KSCK 051730Z 0518/0618 30008KT P6SM SKC
     FM052200 30012G21KT P6SM FEW250
     FM060600 31009KT P6SM FEW250=



000
FTUS46 KSTO 051730
TAFMHR
TAF
KMHR 051730Z 0518/0618 22008KT P6SM SKC
     FM052100 22012G20KT P6SM FEW250
     FM060700 16009KT P6SM FEW250=



000
FTUS46 KSTO 051730
TAFRDD
TAF
KRDD 051730Z 0518/0618 18007KT P6SM FEW100 SCT250
     FM052200 18012G20KT P6SM FEW250
     FM060500 VRB03KT P6SM FEW250=



000
FTUS46 KSTO 051730
TAFSAC
TAF
KSAC 051730Z 0518/0618 22013G20KT P6SM FEW250
     FM060700 18008KT P6SM FEW250=



000
FTUS46 KSTO 051730
TAFRBL
TAF
KRBL 051730Z 0518/0618 16006KT P6SM SCT250
     FM052100 16013G22KT P6SM FEW250
     FM060500 17006KT P6SM FEW250=



000
FTUS46 KSTO 051730
TAFSMF
TAF
KSMF 051730Z 0518/0618 18012KT P6SM SKC
     FM052200 19014G23KT P6SM FEW250
     FM060600 15014KT P6SM FEW250=



000
FTUS46 KSTO 051730
TAFRBL
TAF
KRBL 051730Z 0518/0618 16006KT P6SM SCT250
     FM052100 16013G22KT P6SM FEW250
     FM060500 17006KT P6SM FEW250=



000
FTUS46 KSTO 051730
TAFSAC
TAF
KSAC 051730Z 0518/0618 22013G20KT P6SM FEW250
     FM060700 18008KT P6SM FEW250=



000
FTUS46 KSTO 051730
TAFMHR
TAF
KMHR 051730Z 0518/0618 22008KT P6SM SKC
     FM052100 22012G20KT P6SM FEW250
     FM060700 16009KT P6SM FEW250=



000
FTUS46 KSTO 051730
TAFSCK
TAF
KSCK 051730Z 0518/0618 30008KT P6SM SKC
     FM052200 30012G21KT P6SM FEW250
     FM060600 31009KT P6SM FEW250=



000
FTUS46 KSTO 051730
TAFRDD
TAF
KRDD 051730Z 0518/0618 18007KT P6SM FEW100 SCT250
     FM052200 18012G20KT P6SM FEW250
     FM060500 VRB03KT P6SM FEW250=



000
FTUS46 KSTO 051730
TAFSMF
TAF
KSMF 051730Z 0518/0618 18012KT P6SM SKC
     FM052200 19014G23KT P6SM FEW250
     FM060600 15014KT P6SM FEW250=



000
FTUS46 KSTO 051120
TAFMHR
TAF
KMHR 051120Z 0512/0612 14007KT P6SM SKC
     FM051800 22008KT P6SM SKC
     FM052200 22012G20KT P6SM SCT250
     FM060700 16009KT P6SM FEW250
      AMD NOT SKED=



000
FTUS46 KSTO 051120
TAFSAC
TAF
KSAC 051120Z 0512/0612 20009KT P6SM SKC
     FM052000 22013G20KT P6SM SCT250
     FM060700 18008KT P6SM FEW250=



000
FTUS46 KSTO 051120
TAFSMF
TAF
KSMF 051120Z 0512/0612 17012KT P6SM SKC
     FM052200 19014G23KT P6SM SCT250
     FM060600 15012KT P6SM FEW250=



000
FTUS46 KSTO 051120
TAFSCK
TAF
KSCK 051120Z 0512/0612 VRB05KT P6SM SKC
     FM051800 30012G21KT P6SM SCT250
     FM060600 31009KT P6SM FEW250=



000
FTUS46 KSTO 051120
TAFRDD
TAF
KRDD 051120Z 0512/0612 VRB04KT P6SM FEW100 SCT250
     FM052200 18012G20KT P6SM FEW120
     FM060500 VRB03KT P6SM FEW200=



000
FTUS46 KSTO 051120
TAFRBL
TAF
KRBL 051120Z 0512/0612 16006KT P6SM FEW100 SCT250
     FM052100 16013G22KT P6SM FEW120
     FM060500 17006KT P6SM FEW200=



000
FTUS46 KSTO 050527
TAFMHR
TAF
KMHR 050527Z 0506/0606 21010KT P6SM SKC
     FM051800 22011G17KT P6SM SCT250=



000
FTUS46 KSTO 050527
TAFSMF
TAF
KSMF 050527Z 0506/0606 16010KT P6SM SKC
     FM052000 20010KT P6SM SCT250=



000
FTUS46 KSTO 050527
TAFRDD
TAF
KRDD 050527Z 0506/0606 VRB04KT P6SM SCT250
     FM052200 18010G17KT P6SM BKN250=



000
FTUS46 KSTO 050527
TAFSCK
TAF
KSCK 050527Z 0506/0606 30010KT P6SM SKC
     FM052200 30012G19KT P6SM SCT250=



000
FTUS46 KSTO 050527
TAFRBL
TAF
KRBL 050527Z 0506/0606 VRB05KT P6SM SCT250
     FM052100 16011G17KT P6SM BKN250=



000
FTUS46 KSTO 050527
TAFSAC
TAF
KSAC 050527Z 0506/0606 21010KT P6SM SKC
     FM051800 22012G18KT P6SM SCT250=



000
FTUS46 KSTO 050527
TAFRBL
TAF
KRBL 050527Z 0506/0606 VRB05KT P6SM SCT250
     FM052100 16011G17KT P6SM BKN250=



000
FTUS46 KSTO 050527
TAFRDD
TAF
KRDD 050527Z 0506/0606 VRB04KT P6SM SCT250
     FM052200 18010G17KT P6SM BKN250=



000
FTUS46 KSTO 050527
TAFSMF
TAF
KSMF 050527Z 0506/0606 16010KT P6SM SKC
     FM052000 20010KT P6SM SCT250=



000
FTUS46 KSTO 050527
TAFSAC
TAF
KSAC 050527Z 0506/0606 21010KT P6SM SKC
     FM051800 22012G18KT P6SM SCT250=



000
FTUS46 KSTO 050527
TAFSCK
TAF
KSCK 050527Z 0506/0606 30010KT P6SM SKC
     FM052200 30012G19KT P6SM SCT250=



000
FTUS46 KSTO 042325
TAFSCK
TAF
KSCK 042325Z 0500/0524 29014G20KT P6SM FEW120 BKN250
     FM050600 30010KT P6SM FEW250
     FM052200 30012G19KT P6SM SCT250=



000
FTUS46 KSTO 042325
TAFMHR
TAF
KMHR 042325Z 0500/0524 22011G17KT P6SM FEW120 BKN250
     FM050600 15008KT P6SM FEW250
     FM051800 22011G17KT P6SM SCT250=



000
FTUS46 KSTO 042325
TAFRDD
TAF
KRDD 042325Z 0500/0524 18012G18KT P6SM SCT120 BKN250
     FM050400 VRB04KT P6SM SCT250
     FM052200 18010G17KT P6SM BKN250=



000
FTUS46 KSTO 042325
TAFSMF
TAF
KSMF 042325Z 0500/0524 19014KT P6SM FEW120 BKN250
     FM050600 15013KT P6SM FEW250
     FM052000 20010KT P6SM SCT250=



000
FTUS46 KSTO 042325
TAFSAC
TAF
KSAC 042325Z 0500/0524 22012G19KT P6SM FEW120 BKN250
     FM050600 18009KT P6SM FEW250
     FM051800 22012G18KT P6SM SCT250=



000
FTUS46 KSTO 042325
TAFRBL
TAF
KRBL 042325Z 0500/0524 16011G18KT P6SM SCT120 BKN250
     FM050500 VRB05KT P6SM SCT250
     FM052100 16011G17KT P6SM BKN250=



000
FTUS46 KSTO 041726
TAFSCK
TAF
KSCK 041726Z 0418/0518 30007KT P6SM SCT250
     FM042300 29014G22KT P6SM FEW120 BKN250
     FM050600 30008KT P6SM SCT250=



000
FTUS46 KSTO 041726
TAFRDD
TAF
KRDD 041726Z 0418/0518 VRB03KT P6SM SCT250
     FM042200 18010KT P6SM SCT120 BKN250
     FM050500 VRB03KT P6SM BKN250=



000
FTUS46 KSTO 041726
TAFSMF
TAF
KSMF 041726Z 0418/0518 17007KT P6SM SCT250
     FM042000 20009KT P6SM SCT250
     FM050000 19013G21KT P6SM FEW120 BKN250
     FM050600 15012KT P6SM FEW250=



000
FTUS46 KSTO 041726
TAFSAC
TAF
KSAC 041726Z 0418/0518 23008KT P6SM SCT250
     FM042300 22012G20KT P6SM FEW120 BKN250
     FM050600 18007KT P6SM FEW250=



000
FTUS46 KSTO 041726
TAFMHR
TAF
KMHR 041726Z 0418/0518 22007KT P6SM SCT250
     FM042300 22011G19KT P6SM FEW120 BKN250
     FM050600 15008KT P6SM FEW250=



000
FTUS46 KSTO 041726
TAFRBL
TAF
KRBL 041726Z 0418/0518 VRB04KT P6SM SCT250
     FM042200 16010KT P6SM SCT120 BKN250
     FM050500 VRB05KT P6SM BKN250=



000
FTUS46 KSTO 041120
TAFMHR
TAF
KMHR 041120Z 0412/0512 18005KT P6SM BKN250
     FM042300 22012G21KT P6SM FEW120 BKN250
     FM050600 16008KT P6SM SCT250
      AMD NOT SKED=



000
FTUS46 KSTO 041120
TAFRDD
TAF
KRDD 041120Z 0412/0512 VRB03KT P6SM FEW250
     FM042200 18008KT P6SM SCT120 BKN250
     FM050500 VRB03KT P6SM BKN120=



000
FTUS46 KSTO 041120
TAFRBL
TAF
KRBL 041120Z 0412/0512 32005KT P6SM FEW250
     FM042200 16010KT P6SM SCT120 BKN250
     FM050500 VRB05KT P6SM BKN120=



000
FTUS46 KSTO 041120
TAFSMF
TAF
KSMF 041120Z 0412/0512 16007KT P6SM BKN250
     FM042000 22008KT P6SM SCT250
     FM050000 19013G21KT P6SM FEW120 BKN250
     FM050600 15012KT P6SM FEW250=



000
FTUS46 KSTO 041120
TAFSCK
TAF
KSCK 041120Z 0412/0512 32007KT P6SM SCT250
     FM042300 29014G22KT P6SM FEW120 BKN250
     FM050600 30008KT P6SM SCT250=



000
FTUS46 KSTO 041120
TAFSAC
TAF
KSAC 041120Z 0412/0512 20008KT P6SM BKN250
     FM042300 22012G20KT P6SM FEW120 BKN250
     FM050600 18007KT P6SM FEW250=



    US Dept of Commerce
    National Oceanic and Atmospheric Administration
    National Weather Service
    1325 East West Highway
    Silver Spring, MD 20910
    Page Author: NWS Internet Services Team
Disclaimer
Information Quality
Credits
Glossary
Privacy Policy
Freedom of Information Act (FOIA)
About Us
Career Opportunities